createdAt,value
2018-06-01T00:02:23.451Z,26.23
2018-06-01T00:04:51.617Z,31.30
2018-06-01T00:07:19.705Z,31.80
2018-06-01T00:09:49.870Z,23.97
2018-06-01T00:12:18.167Z,26.30
2018-06-01T00:14:46.284Z,29.53
2018-06-01T00:17:14.372Z,29.80
2018-06-01T00:19:42.476Z,25.87
2018-06-01T00:22:11.275Z,32.67
2018-06-01T00:24:40.859Z,25.30
2018-06-01T00:27:08.983Z,24.83
2018-06-01T00:29:37.065Z,30.33
2018-06-01T00:32:05.420Z,26.70
2018-06-01T00:34:33.505Z,24.70
2018-06-01T00:37:01.969Z,24.80
2018-06-01T00:39:30.072Z,25.37
2018-06-01T00:41:58.191Z,28.43
2018-06-01T00:44:26.384Z,26.17
2018-06-01T00:46:54.742Z,29.30
2018-06-01T00:49:23.025Z,31.13
2018-06-01T00:51:51.592Z,25.03
2018-06-01T00:54:19.724Z,29.83
2018-06-01T00:56:49.243Z,29.50
2018-06-01T00:59:17.367Z,30.43
2018-06-01T01:01:45.516Z,29.00
2018-06-01T01:04:13.645Z,28.73
2018-06-01T01:06:42.493Z,33.60
2018-06-01T01:09:10.604Z,28.43
2018-06-01T01:11:38.785Z,28.07
2018-06-01T01:14:06.879Z,31.67
2018-06-01T01:16:34.950Z,31.17
2018-06-01T01:19:03.059Z,30.53
2018-06-01T01:21:32.134Z,32.43
2018-06-01T01:24:00.211Z,28.20
2018-06-01T01:26:28.319Z,25.23
2018-06-01T01:28:56.408Z,25.20
2018-06-01T01:31:24.505Z,26.63
2018-06-01T01:33:56.798Z,27.63
2018-06-01T01:36:24.917Z,25.57
2018-06-01T01:38:53.019Z,30.07
2018-06-01T01:41:21.348Z,32.10
2018-06-01T01:43:50.196Z,32.83
2018-06-01T01:46:18.337Z,26.57
2018-06-01T01:48:46.616Z,25.70
2018-06-01T01:51:15.577Z,28.03
2018-06-01T01:53:43.687Z,30.50
2018-06-01T01:56:12.572Z,25.47
2018-06-01T01:58:40.664Z,29.73
2018-06-01T02:01:08.793Z,26.13
2018-06-01T02:03:37.655Z,28.93
2018-06-01T02:06:05.735Z,26.70
2018-06-01T02:08:34.072Z,26.87
2018-06-01T02:11:04.894Z,31.20
2018-06-01T02:13:33.009Z,29.30
2018-06-01T02:16:01.129Z,36.10
2018-06-01T02:18:29.219Z,32.30
2018-06-01T02:20:57.315Z,30.20
2018-06-01T02:23:26.345Z,29.07
2018-06-01T02:25:54.534Z,29.60
2018-06-01T02:28:22.873Z,27.93
2018-06-01T02:30:50.964Z,30.60
2018-06-01T02:33:19.042Z,32.13
2018-06-01T02:35:49.061Z,28.70
2018-06-01T02:38:17.158Z,32.13
2018-06-01T02:40:45.925Z,32.50
2018-06-01T02:43:14.009Z,31.47
2018-06-01T02:45:42.176Z,30.20
2018-06-01T02:48:10.300Z,34.23
2018-06-01T02:50:38.444Z,29.90
2018-06-01T02:53:06.524Z,30.23
2018-06-01T02:55:35.604Z,40.50
2018-06-01T02:58:04.373Z,36.90
2018-06-01T03:00:32.465Z,31.70
2018-06-01T03:03:00.923Z,29.80
2018-06-01T03:05:29.119Z,32.63
2018-06-01T03:07:57.208Z,35.83
2018-06-01T03:10:25.285Z,31.77
2018-06-01T03:12:54.154Z,30.50
2018-06-01T03:15:23.005Z,42.73
2018-06-01T03:17:51.119Z,34.40
2018-06-01T03:20:19.206Z,42.90
2018-06-01T03:22:48.067Z,39.77
2018-06-01T03:25:16.156Z,40.63
2018-06-01T03:27:44.288Z,39.20
2018-06-01T03:30:12.604Z,41.53
2018-06-01T03:32:40.740Z,44.30
2018-06-01T03:35:09.527Z,36.87
2018-06-01T03:37:37.624Z,41.03
2018-06-01T03:40:05.716Z,38.23
2018-06-01T03:42:38.656Z,47.17
2018-06-01T03:45:06.728Z,38.60
2018-06-01T03:47:37.048Z,44.20
2018-06-01T03:50:05.127Z,41.00
2018-06-01T03:52:33.378Z,37.70
2018-06-01T03:55:01.481Z,36.60
2018-06-01T03:57:29.571Z,39.67
2018-06-01T03:59:57.659Z,36.33
2018-06-01T04:02:26.148Z,45.00
2018-06-01T04:04:54.239Z,41.93
2018-06-01T04:07:23.172Z,43.70
2018-06-01T04:09:51.264Z,43.20
2018-06-01T04:12:19.389Z,39.73
2018-06-01T04:14:47.464Z,42.93
2018-06-01T04:17:15.569Z,47.43
2018-06-01T04:19:43.917Z,41.97
2018-06-01T04:22:12.664Z,64.93
2018-06-01T04:24:40.802Z,41.20
2018-06-01T04:27:08.892Z,40.63
2018-06-01T04:29:37.001Z,43.10
2018-06-01T04:32:05.859Z,41.73
2018-06-01T04:34:33.981Z,44.07
2018-06-01T04:37:02.067Z,46.40
2018-06-01T04:39:30.193Z,43.27
2018-06-01T04:41:58.292Z,42.50
2018-06-01T04:44:26.377Z,46.50
2018-06-01T04:46:54.479Z,45.37
2018-06-01T04:49:22.574Z,45.50
2018-06-01T04:51:50.901Z,43.90
2018-06-01T04:54:19.031Z,50.00
2018-06-01T04:56:47.244Z,57.60
2018-06-01T04:59:15.328Z,51.57
2018-06-01T05:01:43.452Z,39.13
2018-06-01T05:04:11.523Z,34.50
2018-06-01T05:06:40.473Z,32.43
2018-06-01T05:09:08.724Z,40.87
2018-06-01T05:11:36.795Z,43.33
2018-06-01T05:14:04.996Z,50.83
2018-06-01T05:16:33.322Z,35.87
2018-06-01T05:19:02.234Z,41.13
2018-06-01T05:21:30.312Z,49.40
2018-06-01T05:23:58.411Z,62.63
2018-06-01T05:26:26.484Z,48.27
2018-06-01T05:28:54.603Z,49.00
2018-06-01T05:31:23.467Z,55.07
2018-06-01T05:33:51.574Z,64.53
2018-06-01T05:36:19.811Z,64.27
2018-06-01T05:38:47.910Z,74.97
2018-06-01T05:41:16.788Z,80.47
2018-06-01T05:43:44.888Z,77.53
2018-06-01T05:46:13.040Z,90.30
2018-06-01T05:48:41.300Z,102.13
2018-06-01T05:51:09.418Z,101.07
2018-06-01T05:53:37.728Z,95.03
2018-06-01T05:56:05.819Z,91.57
2018-06-01T05:58:33.908Z,94.60
2018-06-01T06:01:02.141Z,83.30
2018-06-01T06:03:30.939Z,73.03
2018-06-01T06:05:59.280Z,72.40
2018-06-01T06:08:27.369Z,72.53
2018-06-01T06:10:55.460Z,61.77
2018-06-01T06:13:23.545Z,62.57
2018-06-01T06:15:51.665Z,54.80
2018-06-01T06:18:20.462Z,62.83
2018-06-01T06:20:48.603Z,63.60
2018-06-01T06:23:17.643Z,61.43
2018-06-01T06:25:46.099Z,58.53
2018-06-01T06:28:14.243Z,58.13
2018-06-01T06:30:42.899Z,48.40
2018-06-01T06:33:11.478Z,51.20
2018-06-01T06:35:39.557Z,58.30
2018-06-01T06:38:07.891Z,56.53
2018-06-01T06:40:36.736Z,56.83
2018-06-01T06:43:04.836Z,54.30
2018-06-01T06:45:32.961Z,46.47
2018-06-01T06:48:01.116Z,40.73
2018-06-01T06:50:29.984Z,44.40
2018-06-01T06:52:58.256Z,46.53
2018-06-01T06:55:26.437Z,47.60
2018-06-01T06:57:54.615Z,50.00
2018-06-01T07:00:23.502Z,41.10
2018-06-01T07:02:52.613Z,37.20
2018-06-01T07:05:20.720Z,39.10
2018-06-01T07:07:48.869Z,37.27
2018-06-01T07:10:16.973Z,42.77
2018-06-01T07:12:45.083Z,36.57
2018-06-01T07:15:14.084Z,54.10
2018-06-01T07:17:42.973Z,55.50
2018-06-01T07:20:11.818Z,70.70
2018-06-01T07:22:40.099Z,70.40
2018-06-01T07:25:08.431Z,78.60
2018-06-01T07:27:39.770Z,85.60
2018-06-01T07:30:08.635Z,82.87
2018-06-01T07:32:37.283Z,95.97
2018-06-01T07:35:05.566Z,83.33
2018-06-01T07:37:33.916Z,88.90
2018-06-01T07:40:02.008Z,86.43
2018-06-01T07:42:30.132Z,82.93
2018-06-01T07:44:58.204Z,88.30
2018-06-01T07:47:26.332Z,92.00
2018-06-01T07:49:54.453Z,98.80
2018-06-01T07:52:22.574Z,97.17
2018-06-01T07:54:50.657Z,93.03
2018-06-01T07:57:18.767Z,99.97
2018-06-01T07:59:47.021Z,107.97
2018-06-01T08:02:15.134Z,103.27
2018-06-01T08:04:44.033Z,112.57
2018-06-01T08:07:12.145Z,105.50
2018-06-01T08:09:40.265Z,106.57
2018-06-01T08:12:08.377Z,75.50
2018-06-01T08:14:36.718Z,69.20
2018-06-01T08:17:05.975Z,57.93
2018-06-01T08:19:34.103Z,61.03
2018-06-01T08:22:02.187Z,58.10
2018-06-01T08:24:30.316Z,62.73
2018-06-01T08:26:58.558Z,73.40
2018-06-01T08:29:26.852Z,76.93
2018-06-01T08:31:54.939Z,66.80
2018-06-01T08:34:23.031Z,70.37
2018-06-01T08:36:51.884Z,61.10
2018-06-01T08:39:27.328Z,70.10
2018-06-01T08:41:56.551Z,69.83
2018-06-01T08:44:24.840Z,64.87
2018-06-01T08:46:52.951Z,61.50
2018-06-01T08:49:21.068Z,63.10
2018-06-01T08:51:49.527Z,64.60
2018-06-01T08:54:18.318Z,58.23
2018-06-01T08:56:46.419Z,77.30
2018-06-01T08:59:15.381Z,70.90
2018-06-01T09:01:43.704Z,64.57
2018-06-01T09:04:12.632Z,65.77
2018-06-01T09:06:41.744Z,63.67
2018-06-01T09:09:09.824Z,65.37
2018-06-01T09:11:37.926Z,67.10
2018-06-01T09:14:06.040Z,72.03
2018-06-01T09:16:34.171Z,73.03
2018-06-01T09:19:03.956Z,73.70
2018-06-01T09:21:32.020Z,74.00
2018-06-01T09:24:00.128Z,73.70
2018-06-01T09:26:28.981Z,76.83
2018-06-01T09:28:58.112Z,78.70
2018-06-01T09:31:27.220Z,73.90
2018-06-01T09:33:56.460Z,77.80
2018-06-01T09:36:24.559Z,80.67
2018-06-01T09:38:52.643Z,87.90
2018-06-01T09:41:21.004Z,83.20
2018-06-01T09:43:49.320Z,82.50
2018-06-01T09:46:17.492Z,87.80
2018-06-01T09:48:46.310Z,93.97
2018-06-01T09:51:14.576Z,78.80
2018-06-01T09:53:45.971Z,69.20
2018-06-01T09:56:14.164Z,77.87
2018-06-01T09:58:43.044Z,76.10
2018-06-01T10:01:11.195Z,76.43
2018-06-01T10:03:40.220Z,82.40
2018-06-01T10:06:08.830Z,86.27
2018-06-01T10:08:37.671Z,87.93
2018-06-01T10:11:08.649Z,95.40
2018-06-01T10:13:37.002Z,94.63
2018-06-01T10:16:05.081Z,95.17
2018-06-01T10:18:33.187Z,93.00
2018-06-01T10:21:02.091Z,90.97
2018-06-01T10:23:31.604Z,92.40
2018-06-01T10:26:01.590Z,105.63
2018-06-01T10:28:31.038Z,97.10
2018-06-01T10:30:59.135Z,100.27
2018-06-01T10:33:30.872Z,86.17
2018-06-01T10:35:58.956Z,90.93
2018-06-01T10:38:27.320Z,87.00
2018-06-01T10:40:55.400Z,78.67
2018-06-01T10:43:23.688Z,85.80
2018-06-01T10:45:52.208Z,79.67
2018-06-01T10:48:21.302Z,84.17
2018-06-01T10:50:50.211Z,82.00
2018-06-01T10:53:18.478Z,68.70
2018-06-01T10:55:47.024Z,67.63
2018-06-01T10:58:15.128Z,79.77
2018-06-01T11:00:43.323Z,78.17
2018-06-01T11:03:11.688Z,75.50
2018-06-01T11:05:39.971Z,81.00
2018-06-01T11:08:08.993Z,85.93
2018-06-01T11:10:37.868Z,90.87
2018-06-01T11:13:07.628Z,95.10
2018-06-01T11:15:37.403Z,104.57
2018-06-01T11:18:06.319Z,111.80
2018-06-01T11:20:36.087Z,115.17
2018-06-01T11:23:04.572Z,118.00
2018-06-01T11:25:34.092Z,126.60
2018-06-01T11:28:03.096Z,123.13
2018-06-01T11:30:31.491Z,120.13
2018-06-01T11:33:00.449Z,128.87
2018-06-01T11:35:29.164Z,134.57
2018-06-01T11:37:57.951Z,158.73
2018-06-01T11:40:26.203Z,139.30
2018-06-01T11:42:54.448Z,154.73
2018-06-01T11:45:22.567Z,139.17
2018-06-01T11:47:52.474Z,133.93
2018-06-01T11:50:21.684Z,125.60
2018-06-01T11:52:49.840Z,121.87
2018-06-01T11:55:19.397Z,125.93
2018-06-01T11:57:47.679Z,128.73
2018-06-01T12:00:16.915Z,130.23
2018-06-01T12:02:45.001Z,127.30
2018-06-01T12:05:13.411Z,135.40
2018-06-01T12:07:41.545Z,148.83
2018-06-01T12:10:10.300Z,129.67
2018-06-01T12:12:40.005Z,122.27
2018-06-01T12:15:09.399Z,115.53
2018-06-01T12:17:37.810Z,127.10
2018-06-01T12:20:06.106Z,120.33
2018-06-01T12:22:34.384Z,123.67
2018-06-01T12:25:02.487Z,133.30
2018-06-01T12:27:30.984Z,125.83
2018-06-01T12:29:59.873Z,134.03
2018-06-01T12:32:29.504Z,140.70
2018-06-01T12:35:00.432Z,130.57
2018-06-01T12:37:28.865Z,125.97
2018-06-01T12:39:57.668Z,139.17
2018-06-01T12:42:26.555Z,139.17
2018-06-01T12:44:54.656Z,134.30
2018-06-01T12:47:23.016Z,143.80
2018-06-01T12:49:51.879Z,148.80
2018-06-01T12:52:20.056Z,148.73
2018-06-01T12:54:48.296Z,157.67
2018-06-01T12:57:18.146Z,129.17
2018-06-01T12:59:46.443Z,135.13
2018-06-01T13:02:14.878Z,137.90
2018-06-01T13:04:43.713Z,137.37
2018-06-01T13:07:12.060Z,141.13
2018-06-01T13:09:40.851Z,141.43
2018-06-01T13:12:09.244Z,141.17
2018-06-01T13:14:37.461Z,147.47
2018-06-01T13:17:06.447Z,148.67
2018-06-01T13:19:34.671Z,143.53
2018-06-01T13:22:03.048Z,144.17
2018-06-01T13:24:31.131Z,149.10
2018-06-01T13:26:59.231Z,141.27
2018-06-01T13:29:27.340Z,151.77
2018-06-01T13:31:55.457Z,153.90
2018-06-01T13:34:25.129Z,155.43
2018-06-01T13:36:53.300Z,159.37
2018-06-01T13:39:24.389Z,160.80
2018-06-01T13:41:52.778Z,160.20
2018-06-01T13:44:20.971Z,179.33
2018-06-01T13:46:49.069Z,169.27
2018-06-01T13:49:17.920Z,184.33
2018-06-01T13:51:46.527Z,154.00
2018-06-01T13:54:15.272Z,138.87
2018-06-01T13:56:44.069Z,127.77
2018-06-01T13:59:13.248Z,128.80
2018-06-01T14:01:41.555Z,119.40
2018-06-01T14:04:14.168Z,119.97
2018-06-01T14:06:43.040Z,120.70
2018-06-01T14:09:11.134Z,111.70
2018-06-01T14:11:42.216Z,119.33
2018-06-01T14:14:10.416Z,113.63
2018-06-01T14:16:40.933Z,125.20
2018-06-01T14:19:09.152Z,125.93
2018-06-01T14:21:37.788Z,121.90
2018-06-01T14:24:06.081Z,119.77
2018-06-01T14:26:34.250Z,123.90
2018-06-01T14:29:03.028Z,111.73
2018-06-01T14:31:32.164Z,114.40
2018-06-01T14:34:00.348Z,114.80
2018-06-01T14:36:28.441Z,105.33
2018-06-01T14:38:56.545Z,123.13
2018-06-01T14:41:27.995Z,118.73
2018-06-01T14:44:01.828Z,114.93
2018-06-01T14:46:30.933Z,131.67
2018-06-01T14:48:59.203Z,125.43
2018-06-01T14:51:27.640Z,135.57
2018-06-01T14:53:55.821Z,136.20
2018-06-01T14:56:23.924Z,153.33
2018-06-01T14:58:52.030Z,140.87
2018-06-01T15:01:21.096Z,156.43
2018-06-01T15:03:50.208Z,249.13
2018-06-01T15:06:19.099Z,244.07
2018-06-01T15:08:47.429Z,234.47
2018-06-01T15:11:16.096Z,211.50
2018-06-01T15:13:44.256Z,178.77
2018-06-01T15:16:12.597Z,177.40
2018-06-01T15:18:40.895Z,184.23
2018-06-01T15:21:09.196Z,183.47
2018-06-01T15:23:39.002Z,175.43
2018-06-01T15:26:08.024Z,186.57
2018-06-01T15:28:36.139Z,178.27
2018-06-01T15:31:04.247Z,185.83
2018-06-01T15:33:32.384Z,176.20
2018-06-01T15:36:00.603Z,168.93
2018-06-01T15:38:28.706Z,175.10
2018-06-01T15:40:57.452Z,174.70
2018-06-01T15:43:25.568Z,165.03
2018-06-01T15:45:53.651Z,178.50
2018-06-01T15:48:21.736Z,172.17
2018-06-01T15:50:50.615Z,180.07
2018-06-01T15:53:18.764Z,170.27
2018-06-01T15:55:46.843Z,168.53
2018-06-01T15:58:15.065Z,167.60
2018-06-01T16:00:43.936Z,166.13
2018-06-01T16:03:12.044Z,190.53
2018-06-01T16:05:40.492Z,161.23
2018-06-01T16:08:08.591Z,170.00
2018-06-01T16:10:36.984Z,163.57
2018-06-01T16:13:05.090Z,164.97
2018-06-01T16:15:35.298Z,167.33
2018-06-01T16:18:03.429Z,169.00
2018-06-01T16:20:31.547Z,165.43
2018-06-01T16:22:59.641Z,149.60
2018-06-01T16:25:28.444Z,150.87
2018-06-01T16:27:56.571Z,141.70
2018-06-01T16:30:24.717Z,132.10
2018-06-01T16:32:52.872Z,119.10
2018-06-01T16:35:20.992Z,106.40
2018-06-01T16:37:49.932Z,120.23
2018-06-01T16:40:19.172Z,113.27
2018-06-01T16:42:47.259Z,122.43
2018-06-01T16:45:15.390Z,111.33
2018-06-01T16:47:44.257Z,105.43
2018-06-01T16:50:12.361Z,95.47
2018-06-01T16:52:40.475Z,96.27
2018-06-01T16:55:08.602Z,96.33
2018-06-01T16:57:37.855Z,104.73
2018-06-01T17:00:05.989Z,93.13
2018-06-01T17:02:34.065Z,98.17
2018-06-01T17:05:02.919Z,94.63
2018-06-01T17:07:32.034Z,97.07
2018-06-01T17:10:04.988Z,95.23
2018-06-01T17:12:33.223Z,82.53
2018-06-01T17:15:01.387Z,77.93
2018-06-01T17:17:30.462Z,80.60
2018-06-01T17:20:05.784Z,79.50
2018-06-01T17:22:34.965Z,72.87
2018-06-01T17:25:05.183Z,77.30
2018-06-01T17:27:41.689Z,82.53
2018-06-01T17:30:11.644Z,78.37
2018-06-01T17:32:39.849Z,75.30
2018-06-01T17:35:08.903Z,60.10
2018-06-01T17:37:37.988Z,71.20
2018-06-01T17:40:06.153Z,66.23
2018-06-01T17:42:35.144Z,66.73
2018-06-01T17:45:04.354Z,74.30
2018-06-01T17:47:38.172Z,72.97
2018-06-01T17:50:07.317Z,71.20
2018-06-01T17:52:36.799Z,65.13
2018-06-01T17:55:08.947Z,53.70
2018-06-01T17:57:41.865Z,52.57
2018-06-01T18:00:11.031Z,51.90
2018-06-01T18:02:39.825Z,59.33
2018-06-01T18:05:08.628Z,69.47
2018-06-01T18:07:48.380Z,69.17
2018-06-01T18:10:24.687Z,71.70
2018-06-01T18:12:53.020Z,67.13
2018-06-01T18:15:21.240Z,65.83
2018-06-01T18:17:49.852Z,62.73
2018-06-01T18:20:18.189Z,58.50
2018-06-01T18:22:47.069Z,57.53
2018-06-01T18:25:16.198Z,60.90
2018-06-01T18:27:46.089Z,59.73
2018-06-01T18:30:15.010Z,61.23
2018-06-01T18:32:45.249Z,64.87
2018-06-01T18:35:15.287Z,65.83
2018-06-01T18:37:44.372Z,65.20
2018-06-01T18:40:13.720Z,58.47
2018-06-01T18:42:43.653Z,64.30
2018-06-01T18:45:14.837Z,65.47
2018-06-01T18:47:42.962Z,67.87
2018-06-01T18:50:11.840Z,57.20
2018-06-01T18:52:40.856Z,60.07
2018-06-01T18:55:09.769Z,67.70
2018-06-01T18:57:38.044Z,61.60
2018-06-01T19:00:06.303Z,62.00
2018-06-01T19:02:37.736Z,62.40
2018-06-01T19:05:05.941Z,64.90
2018-06-01T19:07:34.430Z,70.80
2018-06-01T19:10:06.177Z,63.23
2018-06-01T19:12:35.254Z,68.43
2018-06-01T19:15:05.945Z,63.57
2018-06-01T19:17:34.305Z,60.67
2018-06-01T19:20:04.131Z,58.20
2018-06-01T19:22:38.481Z,58.97
2018-06-01T19:25:16.573Z,62.23
2018-06-01T19:27:53.053Z,57.50
2018-06-01T19:30:21.164Z,55.60
2018-06-01T19:32:53.131Z,59.90
2018-06-01T19:35:32.724Z,62.60
2018-06-01T19:38:18.095Z,61.77
2018-06-01T19:40:46.405Z,72.63
2018-06-01T19:46:15.200Z,66.43
2018-06-01T19:48:47.384Z,67.57
2018-06-01T19:51:22.332Z,70.60
2018-06-01T19:53:56.225Z,63.50
2018-06-01T19:56:24.424Z,60.90
2018-06-01T19:58:53.354Z,85.80
2018-06-01T20:01:23.618Z,69.43
2018-06-01T20:03:52.389Z,73.97
2018-06-01T20:06:20.531Z,68.77
2018-06-01T20:08:50.711Z,68.70
2018-06-01T20:11:20.261Z,84.57
2018-06-01T20:13:48.524Z,69.63
2018-06-01T20:16:20.880Z,70.70
2018-06-01T20:18:50.418Z,73.53
2018-06-01T20:21:22.485Z,72.00
2018-06-01T20:23:55.224Z,70.57
2018-06-01T20:26:25.880Z,72.43
2018-06-01T20:29:01.094Z,76.17
2018-06-01T20:31:40.036Z,89.40
2018-06-01T20:34:10.276Z,81.77
2018-06-01T20:36:39.020Z,82.27
2018-06-01T20:39:10.919Z,80.10
2018-06-01T20:41:39.122Z,88.73
2018-06-01T20:44:11.456Z,92.57
2018-06-01T20:46:41.433Z,87.33
2018-06-01T20:49:10.910Z,87.27
2018-06-01T20:51:49.475Z,87.83
2018-06-01T20:54:24.593Z,79.47
2018-06-01T20:56:54.738Z,87.83
2018-06-01T20:59:24.494Z,88.37
2018-06-01T21:01:55.904Z,85.63
2018-06-01T21:04:24.972Z,88.10
2018-06-01T21:07:08.029Z,94.83
2018-06-01T21:09:37.191Z,90.70
2018-06-01T21:12:06.839Z,96.03
2018-06-01T21:14:34.943Z,89.10
2018-06-01T21:17:04.788Z,102.53
2018-06-01T21:19:33.926Z,114.20
2018-06-01T21:22:04.856Z,107.67
2018-06-01T21:24:34.948Z,103.67
2018-06-01T21:27:03.867Z,105.60
2018-06-01T21:29:36.836Z,101.83
2018-06-01T21:32:05.361Z,106.77
2018-06-01T21:34:33.455Z,101.43
2018-06-01T21:37:01.671Z,120.27
2018-06-01T21:39:29.779Z,109.27
2018-06-01T21:41:58.701Z,112.50
2018-06-01T21:44:26.871Z,119.80
2018-06-01T21:46:55.559Z,109.77
2018-06-01T21:49:23.675Z,99.77
2018-06-01T21:51:51.975Z,92.20
2018-06-01T21:54:20.557Z,98.77
2018-06-01T21:56:48.788Z,109.47
2018-06-01T21:59:20.747Z,102.47
2018-06-01T22:01:49.658Z,114.57
2018-06-01T22:04:17.753Z,108.03
2018-06-01T22:06:45.878Z,114.07
2018-06-01T22:09:15.383Z,116.07
2018-06-01T22:11:43.524Z,114.63
2018-06-01T22:14:11.948Z,109.00
2018-06-01T22:16:40.188Z,113.47
2018-06-01T22:19:08.321Z,112.57
2018-06-01T22:21:36.872Z,116.97
2018-06-01T22:24:05.205Z,119.53
2018-06-01T22:26:33.328Z,119.47
2018-06-01T22:29:02.313Z,115.77
2018-06-01T22:31:31.361Z,124.27
2018-06-01T22:33:59.674Z,115.17
2018-06-01T22:36:28.676Z,119.70
2018-06-01T22:38:57.544Z,109.57
2018-06-01T22:41:25.861Z,111.87
2018-06-01T22:43:54.009Z,124.40
2018-06-01T22:46:22.144Z,116.67
2018-06-01T22:48:50.236Z,127.70
2018-06-01T22:51:19.143Z,123.90
2018-06-01T22:53:47.353Z,123.47
2018-06-01T22:56:15.805Z,112.90
2018-06-01T22:58:45.014Z,119.27
2018-06-01T23:01:15.616Z,113.10
2018-06-01T23:03:43.893Z,116.10
2018-06-01T23:06:12.842Z,115.83
2018-06-01T23:08:41.005Z,117.30
2018-06-01T23:11:10.128Z,110.90
2018-06-01T23:13:38.641Z,109.20
2018-06-01T23:16:06.835Z,104.40
2018-06-01T23:18:35.828Z,107.13
2018-06-01T23:21:04.183Z,95.43
2018-06-01T23:23:32.309Z,101.80
2018-06-01T23:26:02.153Z,102.67
2018-06-01T23:28:30.575Z,108.83
2018-06-01T23:31:00.431Z,102.27
2018-06-01T23:33:29.351Z,104.00
2018-06-01T23:35:57.631Z,110.13
2018-06-01T23:38:26.614Z,116.43
2018-06-01T23:40:55.686Z,116.87
2018-06-01T23:43:23.888Z,124.03
2018-06-01T23:45:52.801Z,130.07
2018-06-01T23:48:21.659Z,122.83
2018-06-01T23:50:49.937Z,118.17
2018-06-01T23:53:18.803Z,138.10
2018-06-01T23:55:47.035Z,137.10
2018-06-01T23:58:16.650Z,144.50
